Time;durP1;ratioP1;P1;durP2;ratioP2;P2;SDS_P1;SDS_P2;PMS_P1;PMS_P2;Temp;Humidity;BMP_temperature;BMP_pressure;BME280_temperature;BME280_humidity;BME280_pressure;Samples;Min_cycle;Max_cycle;Signal;HPM_P1;HPM_P2
2022/12/09 00:02:20;;;;;;;;;;;;;;;5.49;93.85;97383.66;4535727;31;20150;-77
2022/12/09 00:04:48;;;;;;;70.60;28.90;;;;;;;5.66;92.63;97387.41;4535608;31;19971;-77
2022/12/09 00:07:15;;;;;;;75.87;30.90;;;;;;;5.14;96.48;97381.41;4535049;31;20129;-77
2022/12/09 00:09:42;;;;;;;70.72;30.85;;;;;;;5.23;96.36;97379.41;4535345;31;20429;-77
2022/12/09 00:12:09;;;;;;;69.82;30.85;;;;;;;5.35;95.72;97378.19;4535326;31;20139;-77
2022/12/09 00:14:36;;;;;;;75.95;31.40;;;;;;;5.58;94.52;97387.66;4535029;31;20091;-77
2022/12/09 00:17:03;;;;;;;70.30;29.77;;;;;;;5.66;94.08;97392.53;4535444;31;20095;-77
2022/12/09 00:19:31;;;;;;;69.43;30.12;;;;;;;5.50;94.70;97385.34;4521013;31;20087;-77
2022/12/09 00:21:57;;;;;;;69.00;29.77;;;;;;;5.65;94.71;97385.72;4533590;31;20083;-77
2022/12/09 00:24:25;;;;;;;74.85;31.25;;;;;;;5.60;95.04;97377.34;4535361;31;20091;-77
2022/12/09 00:26:52;;;;;;;63.08;29.23;;;;;;;5.50;95.32;97367.44;4535427;31;20105;-77
2022/12/09 00:29:18;;;;;;;;;;;;;;;5.56;94.93;97373.25;4535055;31;20083;-77
2022/12/09 00:31:45;;;;;;;70.35;26.73;;;;;;;5.18;97.58;97375.31;4535354;31;19979;-77
2022/12/09 00:34:13;;;;;;;68.78;28.25;;;;;;;5.56;95.36;97386.03;4535162;31;20143;-77
2022/12/09 00:36:40;;;;;;;64.18;29.05;;;;;;;6.02;92.77;97391.28;4535048;31;20140;-77
2022/12/09 00:39:09;;;;;;;72.75;29.75;;;;;;;6.12;91.57;97388.41;4535299;31;20087;-77
2022/12/09 00:41:36;;;;;;;72.70;29.83;;;;;;;5.72;93.88;97402.53;4520454;31;20083;-77
2022/12/09 00:44:03;;;;;;;65.65;28.83;;;;;;;6.18;91.63;97406.12;4535183;31;20087;-77
2022/12/09 00:46:30;;;;;;;69.97;30.35;;;;;;;6.18;91.94;97406.97;4535253;31;20140;-77
2022/12/09 00:48:58;;;;;;;77.90;30.30;;;;;;;5.56;94.68;97416.75;4534800;31;20127;-77
2022/12/09 00:51:25;;;;;;;74.20;29.75;;;;;;;5.28;96.81;97404.00;4535147;31;20083;-77
2022/12/09 00:53:54;;;;;;;88.43;32.58;;;;;;;4.95;98.55;97409.28;4535170;31;20118;-77
2022/12/09 00:56:23;;;;;;;85.05;31.95;;;;;;;5.34;96.33;97417.44;4534820;31;20109;-77
2022/12/09 00:58:50;;;;;;;79.80;31.33;;;;;;;5.29;96.40;97409.06;4534983;31;20092;-77
2022/12/09 01:01:17;;;;;;;95.47;32.47;;;;;;;5.41;96.64;97411.22;4535050;31;20162;-77
2022/12/09 01:03:44;;;;;;;81.70;32.33;;;;;;;4.93;99.17;97398.25;4534523;31;20104;-77
2022/12/09 01:06:15;;;;;;;88.57;33.03;;;;;;;5.07;98.79;97387.59;4535022;31;20091;-77
2022/12/09 01:08:42;;;;;;;93.15;34.05;;;;;;;4.96;99.44;97395.59;4520405;31;20101;-77
2022/12/09 01:11:15;;;;;;;84.10;33.85;;;;;;;4.67;100.00;97393.91;4534707;31;20109;-77
2022/12/09 01:13:42;;;;;;;95.82;33.55;;;;;;;4.85;100.00;97384.88;4534954;31;20095;-77
2022/12/09 01:16:15;;;;;;;;;;;;;;;4.55;100.00;97379.78;4535181;31;20102;-77
2022/12/09 01:18:42;;;;;;;98.53;34.30;;;;;;;4.91;100.00;97385.53;4534647;31;19970;-77
2022/12/09 01:21:09;;;;;;;105.32;33.95;;;;;;;4.75;100.00;97379.19;4534562;31;20075;-77
2022/12/09 01:23:36;;;;;;;101.28;34.45;;;;;;;4.99;100.00;97381.88;4519974;31;20095;-77
2022/12/09 01:26:05;;;;;;;100.87;35.80;;;;;;;4.57;100.00;97384.84;4534756;31;20087;-77
2022/12/09 01:28:36;;;;;;;91.78;33.15;;;;;;;4.27;100.00;97382.31;4534575;31;20426;-77
2022/12/09 01:31:06;;;;;;;71.82;27.45;;;;;;;4.86;100.00;97374.59;4520016;31;20097;-77
2022/12/09 01:33:33;;;;;;;82.57;32.72;;;;;;;5.52;97.17;97375.03;4534270;31;20099;-77
2022/12/09 01:36:03;;;;;;;85.72;31.92;;;;;;;4.97;100.00;97373.44;4534670;31;20171;-77
2022/12/09 01:38:30;;;;;;;75.00;28.12;;;;;;;5.23;99.22;97373.47;4534339;31;20075;-77
2022/12/09 01:40:57;;;;;;;83.70;30.33;;;;;;;5.49;98.42;97382.84;4534488;31;20109;-77
2022/12/09 01:43:24;;;;;;;81.12;29.90;;;;;;;5.16;100.00;97369.41;4534555;31;20107;-77
2022/12/09 01:45:52;;;;;;;78.30;29.48;;;;;;;5.70;97.30;97378.72;4534067;31;20091;-77
2022/12/09 01:48:22;;;;;;;90.20;30.30;;;;;;;5.20;100.00;97373.53;4519871;31;20079;-77
2022/12/09 01:50:52;;;;;;;95.18;30.17;;;;;;;5.36;99.89;97371.34;4534348;31;20338;-77
2022/12/09 01:53:22;;;;;;;86.55;30.60;;;;;;;5.36;100.00;97366.22;4534103;31;20099;-77
2022/12/09 01:55:49;;;;;;;86.87;28.92;;;;;;;5.17;100.00;97365.97;4519990;31;20099;-77
2022/12/09 01:58:17;;;;;;;89.07;30.08;;;;;;;5.12;100.00;97362.75;4534355;31;20079;-77
2022/12/09 02:00:44;;;;;;;96.18;30.12;;;;;;;5.40;100.00;97373.72;4533687;31;20397;-77
2022/12/09 02:03:11;;;;;;;98.95;31.37;;;;;;;5.20;100.00;97373.53;4534139;31;20099;-77
2022/12/09 02:05:39;;;;;;;87.85;29.15;;;;;;;5.23;100.00;97364.06;4533843;31;20374;-77
2022/12/09 02:08:10;;;;;;;96.40;30.83;;;;;;;5.14;100.00;97373.75;4533997;31;20465;-77
2022/12/09 02:10:56;;;;;;;81.60;27.50;;;;;;;5.06;100.00;97365.47;4533943;31;20079;-77
2022/12/09 02:13:36;;;;;;;85.70;26.92;;;;;;;5.12;100.00;97365.31;4533616;31;20131;-77
2022/12/09 02:16:08;;;;;;;102.47;31.05;;;;;;;5.06;100.00;97371.44;4534208;31;20095;-77
2022/12/09 02:18:47;;;;;;;109.28;30.77;;;;;;;5.02;100.00;97363.91;4534032;31;20079;-77
2022/12/09 02:21:24;;;;;;;88.87;28.40;;;;;;;4.87;100.00;97366.03;4518963;31;20074;-77
2022/12/09 02:24:01;;;;;;;91.90;27.65;;;;;;;5.10;100.00;97356.81;4533954;31;20130;-77
2022/12/09 02:27:03;;;;;;;92.87;28.13;;;;;;;4.88;100.00;97360.03;4519585;31;20104;-77
2022/12/09 02:30:04;;;;;;;91.78;27.60;;;;;;;4.73;100.00;97362.25;4533605;31;20100;-77
2022/12/09 02:32:38;;;;;;;84.68;24.40;;;;;;;4.87;100.00;97350.72;4533723;31;20560;-77
2022/12/09 02:35:34;;;;;;;90.90;26.42;;;;;;;4.71;100.00;97346.13;4533478;31;20130;-77
2022/12/09 02:38:15;;;;;;;101.40;25.40;;;;;;;4.70;100.00;97339.34;4516888;31;20114;-77
2022/12/09 02:40:49;;;;;;;96.40;25.65;;;;;;;4.76;100.00;97345.09;4518798;31;20181;-77
2022/12/09 02:43:20;;;;;;;109.20;28.05;;;;;;;5.04;100.00;97336.56;4533602;31;20404;-77
2022/12/09 02:45:48;;;;;;;86.70;23.42;;;;;;;4.67;100.00;97332.59;4520518;31;20144;-77
2022/12/09 02:48:19;;;;;;;92.43;26.17;;;;;;;4.81;100.00;97330.47;4521315;31;20099;-77
2022/12/09 02:50:48;;;;;;;77.03;23.25;;;;;;;4.67;100.00;97336.88;4521721;31;20087;-77
2022/12/09 02:53:17;;;;;;;81.90;23.90;;;;;;;5.14;100.00;97333.66;4521663;31;20102;-77
2022/12/09 02:55:46;;;;;;;74.07;22.92;;;;;;;4.63;100.00;97331.03;4521229;31;20118;-77
2022/12/09 02:58:13;;;;;;;81.25;23.12;;;;;;;5.16;100.00;97343.84;4521605;31;20502;-77
2022/12/09 03:00:41;;;;;;;99.75;25.23;;;;;;;5.35;100.00;97339.81;4535829;31;20079;-77
2022/12/09 03:03:13;;;;;;;80.12;22.98;;;;;;;5.07;100.00;97324.50;4521259;31;20101;-77
2022/12/09 03:05:40;;;;;;;131.25;28.92;;;;;;;5.34;100.00;97325.34;4535921;31;20154;-77
2022/12/09 03:08:10;;;;;;;;;;;;;;;5.40;100.00;97322.56;4536079;31;20091;-77
2022/12/09 03:10:52;;;;;;;99.55;24.87;;;;;;;5.57;100.00;97326.28;4535446;31;20034;-77
2022/12/09 03:13:28;;;;;;;136.02;29.55;;;;;;;5.74;100.00;97329.09;4521510;31;20695;-77
2022/12/09 03:16:05;;;;;;;144.70;29.35;;;;;;;5.51;100.00;97330.72;4535575;31;20099;-77
2022/12/09 03:18:32;;;;;;;122.13;26.98;;;;;;;5.79;100.00;97329.78;4535917;31;20092;-77
2022/12/09 03:21:00;;;;;;;150.73;26.60;;;;;;;5.23;100.00;97341.06;4521031;31;20087;-77
2022/12/09 03:23:27;;;;;;;110.78;24.05;;;;;;;5.26;100.00;97334.16;4520967;31;20082;-77
2022/12/09 03:25:55;;;;;;;159.30;27.65;;;;;;;5.06;100.00;97332.25;4535806;31;20144;-77
2022/12/09 03:28:25;;;;;;;113.68;24.58;;;;;;;5.34;100.00;97324.50;4521256;31;20100;-77
2022/12/09 03:30:53;;;;;;;126.68;26.62;;;;;;;4.68;100.00;97329.19;4535302;31;20091;-77
2022/12/09 03:33:22;;;;;;;158.05;28.70;;;;;;;4.67;100.00;97318.97;4535622;31;20071;-77
2022/12/09 03:35:54;;;;;;;212.70;31.60;;;;;;;4.94;100.00;97321.53;4535676;31;20537;-77
2022/12/09 03:38:22;;;;;;;226.32;33.75;;;;;;;5.19;100.00;97313.88;4535458;31;20083;-77
2022/12/09 03:40:56;;;;;;;233.73;30.10;;;;;;;5.56;100.00;97309.28;4521200;31;20087;-77
2022/12/09 03:43:27;;;;;;;207.73;31.37;;;;;;;5.61;100.00;97307.38;4535612;31;20075;-77
2022/12/09 03:45:55;;;;;;;285.75;35.05;;;;;;;5.61;100.00;97313.31;4521097;31;20512;-77
2022/12/09 03:48:23;;;;;;;346.02;36.25;;;;;;;5.64;100.00;97315.81;4535569;31;20099;-77
2022/12/09 03:50:58;;;;;;;263.98;33.25;;;;;;;5.48;100.00;97315.47;4535236;31;20087;-77
2022/12/09 03:53:32;;;;;;;320.30;39.03;;;;;;;5.59;100.00;97307.44;4521201;31;20097;-77
2022/12/09 03:56:20;;;;;;;264.92;32.80;;;;;;;5.59;100.00;97320.22;4521175;31;20155;-77
2022/12/09 03:58:50;;;;;;;282.90;31.52;;;;;;;5.51;100.00;97320.47;4535156;31;20095;-77
2022/12/09 04:01:17;;;;;;;241.02;29.55;;;;;;;5.06;100.00;97322.00;4535436;31;20075;-77
2022/12/09 04:03:48;;;;;;;340.50;36.38;;;;;;;5.29;100.00;97322.09;4535380;31;20143;-77
2022/12/09 04:06:15;;;;;;;358.45;37.72;;;;;;;5.51;100.00;97319.66;4535196;31;20144;-77
2022/12/09 04:08:42;;;;;;;343.75;34.95;;;;;;;5.52;100.00;97321.31;4535227;31;20377;-78
2022/12/09 04:11:09;;;;;;;350.42;36.00;;;;;;;5.54;100.00;97317.00;4535378;31;20099;-77
2022/12/09 04:13:36;;;;;;;327.83;34.17;;;;;;;5.62;100.00;97322.66;4535069;31;20162;-77
2022/12/09 04:16:04;;;;;;;402.15;37.10;;;;;;;5.61;100.00;97325.28;4535492;31;20100;-77
2022/12/09 04:18:31;;;;;;;371.62;38.08;;;;;;;5.40;100.00;97319.16;4535431;31;20104;-77
2022/12/09 04:20:58;;;;;;;433.38;42.10;;;;;;;5.37;100.00;97316.72;4534667;31;20157;-77
2022/12/09 04:23:25;;;;;;;;;;;;;;;5.49;100.00;97319.69;4535576;31;20462;-77
2022/12/09 04:25:52;;;;;;;330.00;35.08;;;;;;;5.63;100.00;97310.72;4535291;31;20032;-77
2022/12/09 04:28:19;;;;;;;;;;;;;;;5.59;100.00;97309.16;4535621;31;20143;-77
2022/12/09 04:30:46;;;;;;;325.60;33.33;;;;;;;5.26;100.00;97308.56;4535266;31;19971;-77
2022/12/09 04:33:13;;;;;;;259.90;31.08;;;;;;;5.48;100.00;97306.97;4520581;31;20114;-77
2022/12/09 04:35:40;;;;;;;418.05;38.47;;;;;;;5.35;100.00;97300.59;4535209;31;20441;-77
2022/12/09 04:38:08;;;;;;;405.83;37.40;;;;;;;5.12;100.00;97302.19;4535249;31;20099;-77
2022/12/09 04:40:35;;;;;;;439.70;42.03;;;;;;;5.07;100.00;97303.22;4534740;31;20103;-77
2022/12/09 04:43:02;;;;;;;461.00;43.25;;;;;;;5.11;100.00;97297.97;4535207;31;20083;-77
2022/12/09 04:45:29;;;;;;;527.75;46.95;;;;;;;5.23;100.00;97296.72;4535122;31;20163;-77
2022/12/09 04:48:00;;;;;;;496.87;48.00;;;;;;;5.21;100.00;97304.47;4534825;31;20106;-77
2022/12/09 04:50:27;;;;;;;484.87;48.75;;;;;;;5.62;100.00;97302.19;4534884;31;20139;-77
2022/12/09 04:52:53;;;;;;;;;;;;;;;5.69;100.00;97302.81;4535391;31;20075;-77
2022/12/09 04:55:20;;;;;;;455.08;43.10;;;;;;;5.75;100.00;97295.78;4534869;31;20624;-77
2022/12/09 04:57:48;;;;;;;500.65;45.35;;;;;;;5.69;100.00;97295.97;4534990;31;20423;-77
2022/12/09 05:00:15;;;;;;;517.33;46.15;;;;;;;5.67;100.00;97295.22;4534953;31;20452;-77
2022/12/09 05:02:42;;;;;;;503.30;46.83;;;;;;;5.70;100.00;97286.59;4534801;31;20087;-77
2022/12/09 05:05:10;;;;;;;568.10;48.30;;;;;;;5.82;100.00;97291.25;4534990;31;20091;-77
2022/12/09 05:07:38;;;;;;;503.58;43.05;;;;;;;5.79;100.00;97278.56;4534170;31;20115;-77
2022/12/09 05:10:06;;;;;;;549.08;42.85;;;;;;;5.78;100.00;97277.75;4534326;31;20092;-77
2022/12/09 05:12:34;;;;;;;399.17;31.58;;;;;;;6.01;100.00;97284.62;4534884;31;20147;-77
2022/12/09 05:15:01;;;;;;;507.25;41.70;;;;;;;6.12;100.00;97275.72;4534567;31;20095;-77
2022/12/09 05:17:28;;;;;;;518.53;44.97;;;;;;;5.83;100.00;97275.00;4534828;31;20114;-77
2022/12/09 05:19:55;;;;;;;470.25;43.38;;;;;;;5.97;100.00;97272.84;4534452;31;20373;-77
2022/12/09 05:22:22;;;;;;;463.05;39.25;;;;;;;6.05;100.00;97273.37;4534524;31;20067;-77
2022/12/09 05:24:49;;;;;;;515.72;43.33;;;;;;;5.69;100.00;97272.13;4534780;31;20087;-77
2022/12/09 05:27:16;;;;;;;350.98;34.08;;;;;;;5.87;100.00;97262.94;4534851;31;20098;-77
2022/12/09 05:29:44;;;;;;;446.95;37.55;;;;;;;5.85;100.00;97272.37;4534156;31;20092;-77
2022/12/09 05:32:10;;;;;;;378.52;32.78;;;;;;;5.40;100.00;97273.13;4534581;31;20461;-77
2022/12/09 05:34:38;;;;;;;371.35;31.30;;;;;;;5.57;100.00;97275.94;4520254;31;20476;-77
2022/12/09 05:37:05;;;;;;;380.23;32.72;;;;;;;6.13;100.00;97277.38;4534185;31;20138;-77
2022/12/09 05:39:32;;;;;;;338.90;27.02;;;;;;;5.67;100.00;97276.47;4534403;31;20091;-77
2022/12/09 05:42:00;;;;;;;295.50;25.48;;;;;;;5.82;100.00;97273.34;4534572;31;20071;-77
2022/12/09 05:44:27;;;;;;;133.57;16.52;;;;;;;5.80;100.00;97280.25;4534114;31;20146;-77
2022/12/09 05:46:54;;;;;;;241.77;22.25;;;;;;;5.89;100.00;97269.69;4534366;31;20107;-77
2022/12/09 05:49:23;;;;;;;114.80;14.43;;;;;;;6.04;100.00;97271.69;4537322;31;20143;-81
2022/12/09 05:51:50;;;;;;;97.00;13.45;;;;;;;5.88;100.00;97274.84;4542976;31;20079;-81
2022/12/09 05:54:17;;;;;;;93.95;13.02;;;;;;;5.67;100.00;97279.03;4541477;31;20099;-81
2022/12/09 05:56:45;;;;;;;114.10;13.73;;;;;;;5.89;100.00;97273.97;4541171;31;20158;-81
2022/12/09 05:59:20;;;;;;;122.87;14.05;;;;;;;6.07;100.00;97270.78;4540647;31;20472;-81
2022/12/09 06:01:47;;;;;;;71.68;10.48;;;;;;;5.77;100.00;97267.56;4540837;31;20043;-81
2022/12/09 06:04:14;;;;;;;144.07;16.25;;;;;;;5.43;100.00;97278.16;4541031;31;20095;-81
2022/12/09 06:06:42;;;;;;;115.20;12.07;;;;;;;5.65;100.00;97268.00;4541655;31;20091;-81
2022/12/09 06:09:10;;;;;;;76.45;13.68;;;;;;;5.93;100.00;97267.88;4541718;31;20094;-81
2022/12/09 06:11:38;;;;;;;47.85;9.30;;;;;;;6.05;100.00;97257.16;4540935;31;20098;-81
2022/12/09 06:14:08;;;;;;;97.45;10.68;;;;;;;5.89;100.00;97259.44;4541477;31;20083;-81
2022/12/09 06:16:36;;;;;;;97.75;10.85;;;;;;;5.61;100.00;97256.19;4540929;31;20099;-81
2022/12/09 06:19:04;;;;;;;84.90;10.80;;;;;;;5.40;100.00;97256.06;4539503;31;20083;-81
2022/12/09 06:21:31;;;;;;;127.65;10.13;;;;;;;5.44;100.00;97247.41;4540637;31;20105;-81
2022/12/09 06:23:58;;;;;;;69.93;9.88;;;;;;;5.17;100.00;97253.44;4540642;31;20110;-81
2022/12/09 06:26:28;;;;;;;103.28;8.98;;;;;;;5.04;100.00;97250.47;4540174;31;20087;-81
2022/12/09 06:28:56;;;;;;;105.82;10.60;;;;;;;5.25;100.00;97255.75;4540416;31;20066;-81
2022/12/09 06:31:23;;;;;;;171.35;14.02;;;;;;;5.57;100.00;97259.75;4539539;31;20079;-81
2022/12/09 06:33:51;;;;;;;73.97;7.03;;;;;;;5.09;100.00;97260.53;4539576;31;20109;-81
2022/12/09 06:36:23;;;;;;;127.22;13.52;;;;;;;5.22;100.00;97260.09;4539833;31;20066;-81
2022/12/09 06:38:51;;;;;;;130.37;13.55;;;;;;;5.21;100.00;97257.59;4539666;31;20056;-81
2022/12/09 06:41:18;;;;;;;184.13;14.73;;;;;;;5.12;100.00;97260.47;4538960;31;20075;-81
2022/12/09 06:43:45;;;;;;;260.80;18.42;;;;;;;5.21;100.00;97266.09;4539537;31;20102;-81
2022/12/09 06:46:14;;;;;;;126.65;14.10;;;;;;;5.18;100.00;97265.34;4539489;31;20110;-81
2022/12/09 06:48:41;;;;;;;122.40;13.18;;;;;;;5.35;100.00;97263.06;4539561;31;20134;-81
2022/12/09 06:51:09;;;;;;;160.75;15.75;;;;;;;5.15;100.00;97262.91;4522689;31;20076;-81
2022/12/09 06:53:36;;;;;;;152.05;13.62;;;;;;;5.27;100.00;97256.53;4535611;31;20088;-81
2022/12/09 06:56:06;;;;;;;84.55;10.05;;;;;;;4.93;100.00;97261.06;4536051;31;20099;-81
2022/12/09 06:58:39;;;;;;;160.45;16.60;;;;;;;5.02;100.00;97261.66;4536156;31;20095;-81
2022/12/09 07:01:15;;;;;;;87.40;10.30;;;;;;;5.07;100.00;97249.53;4537110;31;20098;-81
2022/12/09 07:03:43;;;;;;;76.15;13.27;;;;;;;5.01;100.00;97234.41;4538086;31;20109;-82
2022/12/09 07:06:27;;;;;;;147.98;14.43;;;;;;;4.74;100.00;97231.03;4538696;31;20060;-81
2022/12/09 07:08:56;;;;;;;122.03;10.63;;;;;;;4.93;100.00;97237.22;4538749;31;20091;-81
2022/12/09 07:11:24;;;;;;;179.07;18.05;;;;;;;4.91;100.00;97239.81;4538396;31;20063;-81
2022/12/09 07:13:51;;;;;;;127.62;17.75;;;;;;;4.54;100.00;97242.72;4539038;31;20106;-82
2022/12/09 07:16:18;;;;;;;105.18;14.63;;;;;;;4.67;100.00;97255.94;4540354;31;20103;-81
2022/12/09 07:18:48;;;;;;;49.25;10.07;;;;;;;4.96;100.00;97246.50;4539901;31;20369;-82
2022/12/09 07:21:17;;;;;;;39.20;9.45;;;;;;;4.78;100.00;97245.38;4544139;31;20144;-80
2022/12/09 07:23:44;;;;;;;64.78;12.40;;;;;;;4.69;100.00;97241.41;4544033;31;20198;-81
2022/12/09 07:26:12;;;;;;;77.10;13.48;;;;;;;4.59;100.00;97238.31;4544048;31;20063;-81
2022/12/09 07:28:41;;;;;;;65.47;12.77;;;;;;;4.69;100.00;97243.97;4545499;31;20087;-80
2022/12/09 07:31:28;;;;;;;24.90;8.35;;;;;;;4.92;100.00;97238.09;4544983;31;20079;-81
2022/12/09 07:33:57;;;;;;;49.60;11.98;;;;;;;4.60;100.00;97227.22;4536452;31;20154;-81
2022/12/09 07:36:26;;;;;;;48.15;11.98;;;;;;;4.81;100.00;97235.06;4520255;31;20119;-81
2022/12/09 07:38:58;;;;;;;33.70;10.25;;;;;;;4.61;100.00;97231.44;4504347;31;20088;-78
2022/12/09 07:41:26;;;;;;;29.67;8.65;;;;;;;4.78;100.00;97230.88;4522479;31;20114;-79
2022/12/09 07:43:53;;;;;;;28.62;9.18;;;;;;;4.52;100.00;97218.13;4516741;31;20099;-79
2022/12/09 07:46:22;;;;;;;35.22;9.57;;;;;;;4.45;100.00;97211.50;4519123;31;20104;-79
2022/12/09 07:48:50;;;;;;;30.23;8.38;;;;;;;4.24;100.00;97206.19;4518154;31;20084;-79
2022/12/09 07:51:17;;;;;;;21.02;7.75;;;;;;;4.49;100.00;97202.91;4518506;31;20395;-79
2022/12/09 07:53:45;;;;;;;43.70;9.93;;;;;;;4.70;100.00;97203.91;4519876;31;20096;-79
2022/12/09 07:56:14;;;;;;;34.00;9.75;;;;;;;4.33;100.00;97200.81;4518922;31;20083;-79
2022/12/09 07:58:43;;;;;;;41.22;10.07;;;;;;;4.50;100.00;97202.84;4516862;31;20170;-80
2022/12/09 08:01:16;;;;;;;33.38;8.00;;;;;;;4.83;100.00;97200.06;4518867;31;20083;-77
2022/12/09 08:03:43;;;;;;;39.92;9.68;;;;;;;4.66;100.00;97205.72;4504509;31;20676;-82
2022/12/09 08:06:13;;;;;;;33.28;9.02;;;;;;;4.43;100.00;97203.06;4518627;31;20110;-80
2022/12/09 08:08:41;;;;;;;36.22;10.98;;;;;;;4.46;100.00;97197.84;4517694;31;20082;-80
2022/12/09 08:11:17;;;;;;;53.78;10.65;;;;;;;4.61;100.00;97200.78;4518433;31;20186;-80
2022/12/09 08:13:45;;;;;;;57.05;10.25;;;;;;;4.50;100.00;97210.50;4518613;31;20118;-80
2022/12/09 08:16:14;;;;;;;47.97;9.85;;;;;;;4.60;100.00;97209.31;4518841;31;20139;-81
2022/12/09 08:18:42;;;;;;;26.08;7.32;;;;;;;4.45;100.00;97197.03;4517186;31;20130;-81
2022/12/09 08:21:15;;;;;;;40.10;9.82;;;;;;;4.71;100.00;97198.75;4504098;31;20549;-81
2022/12/09 08:23:43;;;;;;;41.13;11.63;;;;;;;4.99;100.00;97197.81;4518889;31;20143;-81
2022/12/09 08:26:11;;;;;;;28.35;9.00;;;;;;;5.02;100.00;97192.62;4518095;31;20421;-80
2022/12/09 08:28:39;;;;;;;50.12;10.43;;;;;;;4.70;100.00;97183.47;4517233;31;20142;-81
2022/12/09 08:31:14;;;;;;;44.60;10.95;;;;;;;4.67;100.00;97183.56;4518950;31;20467;-81
2022/12/09 08:33:42;;;;;;;27.15;9.63;;;;;;;4.55;100.00;97182.25;4518123;31;20100;-82
2022/12/09 08:36:12;;;;;;;40.28;11.98;;;;;;;4.57;100.00;97193.25;4518532;31;20100;-81
2022/12/09 08:38:41;;;;;;;34.28;9.93;;;;;;;4.81;100.00;97196.72;4517604;31;20430;-81
2022/12/09 08:41:33;;;;;;;32.22;8.88;;;;;;;4.80;100.00;97189.94;4518267;31;20110;-81
2022/12/09 08:44:10;;;;;;;71.37;14.45;;;;;;;4.85;100.00;97196.56;4517426;31;20111;-82
2022/12/09 08:46:39;;;;;;;72.60;13.50;;;;;;;4.79;100.00;97175.50;4517907;31;20107;-81
2022/12/09 08:49:07;;;;;;;44.55;11.35;;;;;;;4.77;100.00;97195.16;4517425;31;20155;-80
2022/12/09 08:51:35;;;;;;;36.13;11.70;;;;;;;4.94;100.00;97197.97;4519643;31;20102;-83
2022/12/09 08:54:03;;;;;;;38.03;10.95;;;;;;;5.04;100.00;97184.00;4510956;31;20088;-83
2022/12/09 08:56:31;;;;;;;22.02;6.53;;;;;;;4.91;100.00;97169.97;4518162;31;20114;-83
2022/12/09 08:58:58;;;;;;;27.00;9.25;;;;;;;5.26;100.00;97170.47;4517526;31;20104;-84
2022/12/09 09:01:32;;;;;;;25.25;8.50;;;;;;;5.38;100.00;97177.69;4518405;31;20067;-84
2022/12/09 09:04:04;;;;;;;21.10;8.32;;;;;;;5.62;100.00;97168.28;4518361;31;20433;-84
2022/12/09 09:06:32;;;;;;;18.98;7.30;;;;;;;5.42;100.00;97151.97;4518478;31;20100;-83
2022/12/09 09:08:59;;;;;;;20.62;6.85;;;;;;;5.39;100.00;97156.34;4518047;31;20147;-83
2022/12/09 09:11:27;;;;;;;14.68;5.00;;;;;;;5.18;100.00;97153.66;4504662;31;20110;-84
2022/12/09 09:13:55;;;;;;;16.73;5.65;;;;;;;5.59;100.00;97150.50;4519726;31;20104;-84
2022/12/09 09:16:24;;;;;;;11.05;2.80;;;;;;;5.33;100.00;97144.63;4519732;31;20079;-85
2022/12/09 09:18:52;;;;;;;26.23;7.18;;;;;;;5.53;100.00;97143.91;4518262;31;20505;-85
2022/12/09 09:21:21;;;;;;;33.35;8.02;;;;;;;4.95;100.00;97140.84;4518863;31;20139;-85
2022/12/09 09:23:49;;;;;;;83.32;11.32;;;;;;;4.88;100.00;97142.78;4520219;31;20107;-85
2022/12/09 09:26:19;;;;;;;77.30;11.15;;;;;;;4.99;100.00;97132.19;4519928;31;20091;-85
2022/12/09 09:28:46;;;;;;;217.55;16.67;;;;;;;5.22;100.00;97136.50;4517816;31;20544;-85
2022/12/09 09:31:16;;;;;;;179.57;15.95;;;;;;;5.27;100.00;97126.09;4519652;31;20470;-85
2022/12/09 09:33:44;;;;;;;128.20;10.32;;;;;;;5.25;100.00;97118.47;4520367;31;20064;-84
2022/12/09 09:36:15;;;;;;;161.20;10.95;;;;;;;5.02;100.00;97109.09;4518912;31;20079;-85
2022/12/09 09:38:50;;;;;;;56.40;8.40;;;;;;;5.13;100.00;97104.41;4517492;31;20080;-85
2022/12/09 09:41:40;;;;;;;85.43;8.60;;;;;;;5.48;100.00;97090.31;4518887;31;20135;-84
2022/12/09 09:44:37;;;;;;;190.73;15.15;;;;;;;5.17;100.00;97089.78;4520208;31;20119;-84
2022/12/09 09:47:24;;;;;;;45.58;5.15;;;;;;;5.42;100.00;97074.34;4521737;31;20091;-83
2022/12/09 09:50:03;;;;;;;152.98;12.23;;;;;;;5.59;100.00;97074.56;4508047;31;20110;-83
2022/12/09 09:52:30;;;;;;;120.82;12.37;;;;;;;5.36;100.00;97066.94;4517321;31;20115;-83
2022/12/09 09:54:57;;;;;;;349.08;24.30;;;;;;;4.92;100.00;97057.44;4505561;31;20099;-84
2022/12/09 09:58:03;;;;;;;310.48;22.67;;;;;;;4.85;100.00;97060.28;4520116;31;20099;-84
2022/12/09 10:00:47;;;;;;;113.57;11.07;;;;;;;4.71;100.00;97052.25;4482043;31;20355;-84
2022/12/09 10:03:35;;;;;;;238.70;19.62;;;;;;;4.90;100.00;97050.72;4519957;31;20088;-83
2022/12/09 10:06:23;;;;;;;219.95;19.27;;;;;;;4.84;100.00;97054.31;4493411;31;20096;-83
2022/12/09 10:09:08;;;;;;;194.80;17.58;;;;;;;4.96;100.00;97039.44;4521336;31;20096;-82
2022/12/09 10:11:41;;;;;;;141.15;11.32;;;;;;;4.86;100.00;97047.44;4520082;31;20088;-83
2022/12/09 10:14:33;;;;;;;232.85;19.50;;;;;;;4.64;100.00;97036.31;4523862;31;20076;-85
2022/12/09 10:17:31;;;;;;;128.65;10.52;;;;;;;4.45;100.00;97018.22;4520657;31;20385;-84
2022/12/09 10:20:10;;;;;;;170.43;15.93;;;;;;;4.48;100.00;97000.25;4520275;31;20118;-80
2022/12/09 10:23:11;;;;;;;144.55;14.57;;;;;;;4.56;100.00;97002.53;4505742;31;20378;-84
2022/12/09 10:25:46;;;;;;;73.50;9.07;;;;;;;5.22;100.00;96998.41;4498589;31;20084;-84
2022/12/09 10:28:23;;;;;;;112.32;12.23;;;;;;;5.03;100.00;96982.09;4508204;31;20706;-84
2022/12/09 10:30:52;;;;;;;177.95;16.73;;;;;;;4.99;100.00;96980.50;4519885;31;20091;-83
2022/12/09 10:33:32;;;;;;;215.30;17.85;;;;;;;5.12;100.00;96971.50;4520644;31;20088;-84
2022/12/09 10:36:00;;;;;;;325.87;26.05;;;;;;;4.97;100.00;96972.91;4506969;31;20462;-84
2022/12/09 10:38:29;;;;;;;256.48;21.62;;;;;;;5.08;100.00;96965.66;4520470;31;20447;-84
2022/12/09 10:41:05;;;;;;;358.13;30.20;;;;;;;5.36;100.00;96965.44;4520574;31;20347;-84
2022/12/09 10:43:37;;;;;;;33.85;7.93;;;;;;;5.10;100.00;96969.00;4508401;31;20091;-84
2022/12/09 10:46:14;;;;;;;384.62;33.40;;;;;;;5.51;100.00;96967.37;4524243;31;20056;-84
2022/12/09 10:48:47;;;;;;;139.65;13.07;;;;;;;5.01;100.00;96958.31;4524258;31;20143;-84
2022/12/09 10:51:23;;;;;;;104.82;12.88;;;;;;;5.08;100.00;96954.59;4523034;31;20103;-83
2022/12/09 10:54:02;;;;;;;302.13;26.50;;;;;;;4.77;100.00;96952.37;4520698;31;20158;-84
2022/12/09 10:56:36;;;;;;;137.12;12.27;;;;;;;5.01;100.00;96954.03;4521643;31;20098;-84
2022/12/09 10:59:21;;;;;;;332.10;24.63;;;;;;;5.02;100.00;96960.81;4521963;31;20408;-83
2022/12/09 11:01:50;;;;;;;117.22;12.18;;;;;;;4.71;100.00;96953.44;4522408;31;20110;-84
2022/12/09 11:04:25;;;;;;;306.30;27.17;;;;;;;4.94;100.00;96940.62;4520086;31;20063;-84
2022/12/09 11:06:56;;;;;;;115.43;12.88;;;;;;;4.81;100.00;96931.78;4518986;31;20354;-84
2022/12/09 11:09:30;;;;;;;280.60;21.98;;;;;;;4.72;100.00;96916.78;4520238;31;20118;-84
2022/12/09 11:11:58;;;;;;;419.83;32.65;;;;;;;5.15;100.00;96927.91;4506081;31;20700;-84
2022/12/09 11:14:38;;;;;;;387.83;28.65;;;;;;;5.04;100.00;96917.28;4520790;31;20092;-84
2022/12/09 11:17:20;;;;;;;235.30;23.40;;;;;;;4.99;100.00;96904.66;4507149;31;20101;-84
2022/12/09 11:20:19;;;;;;;338.33;25.65;;;;;;;4.92;100.00;96906.63;4521011;31;20253;-84
2022/12/09 11:23:21;;;;;;;288.73;23.12;;;;;;;5.16;100.00;96911.69;4521068;31;20100;-81
2022/12/09 11:26:02;;;;;;;273.42;21.27;;;;;;;5.67;100.00;96905.38;4522251;31;20218;-84
2022/12/09 11:28:33;;;;;;;136.82;14.23;;;;;;;5.23;100.00;96897.78;4524597;31;20071;-82
2022/12/09 11:31:16;;;;;;;212.90;20.92;;;;;;;5.49;100.00;96900.09;4510986;31;20461;-82
2022/12/09 11:33:58;;;;;;;200.40;22.52;;;;;;;5.50;100.00;96904.31;4525489;31;20068;-81
2022/12/09 11:36:34;;;;;;;112.03;15.25;;;;;;;5.61;100.00;96885.13;4512508;31;20712;-82